Time;durP1;ratioP1;P1;durP2;ratioP2;P2;SDS_P1;SDS_P2;PMS_P1;PMS_P2;Temp;Humidity;BMP_temperature;BMP_pressure;BME280_temperature;BME280_humidity;BME280_pressure;Samples;Min_cycle;Max_cycle;Signal;HPM_P1;HPM_P2
2022/02/21 00:00:02;;;;;;;;;;;7.60;86.00;;;;;;5012670;28;19932;-75
2022/02/21 00:02:28;;;;;;;;;;;7.60;85.90;;;;;;4994914;28;20431;-74
2022/02/21 00:04:53;;;;;;;;;;;7.70;86.50;;;;;;4994667;28;19914;-74
2022/02/21 00:07:19;;;;;;;;;;;7.70;85.30;;;;;;4994952;28;19909;-75
2022/02/21 00:09:44;;;;;;;;;;;7.70;85.40;;;;;;5012363;28;19910;-75
2022/02/21 00:12:10;;;;;;;;;;;7.70;84.90;;;;;;5012439;28;19920;-75
2022/02/21 00:14:36;;;;;;;;;;;7.70;84.80;;;;;;5012371;28;19917;-75
2022/02/21 00:17:02;;;;;;;;;;;7.80;84.50;;;;;;4994688;28;20381;-74
2022/02/21 00:19:27;;;;;;;;;;;7.90;83.00;;;;;;5012375;28;19940;-75
2022/02/21 00:21:53;;;;;;;;;;;8.00;82.00;;;;;;5012539;28;19913;-75
2022/02/21 00:24:19;;;;;;;;;;;8.10;81.50;;;;;;5012219;28;19909;-76
2022/02/21 00:26:44;;;;;;;;;;;8.20;81.40;;;;;;5012108;28;19919;-75
2022/02/21 00:29:11;;;;;;;;;;;8.20;80.30;;;;;;4994710;28;19913;-75
2022/02/21 00:31:37;;;;;;;;;;;8.30;80.10;;;;;;5012197;28;19928;-74
2022/02/21 00:34:02;;;;;;;;;;;8.40;79.40;;;;;;4996609;28;19913;-74
2022/02/21 00:36:28;;;;;;;;;;;8.50;78.60;;;;;;4998425;28;20416;-75
2022/02/21 00:38:54;;;;;;;;;;;8.50;78.50;;;;;;4998846;28;19917;-75
2022/02/21 00:41:19;;;;;;;;;;;8.60;77.70;;;;;;5016007;28;19917;-76
2022/02/21 00:43:45;;;;;;;;;;;8.60;77.50;;;;;;5015804;28;19914;-75
2022/02/21 00:46:10;;;;;;;;;;;8.70;77.00;;;;;;5015630;28;19925;-75
2022/02/21 00:48:36;;;;;;;;;;;8.70;77.20;;;;;;4998363;28;19910;-75
2022/02/21 00:51:02;;;;;;;;;;;8.70;77.70;;;;;;4998270;28;19910;-75
2022/02/21 00:53:27;;;;;;;;;;;8.70;77.10;;;;;;5015803;28;19921;-75
2022/02/21 00:55:53;;;;;;;;;;;8.70;76.90;;;;;;4998141;28;20182;-75
2022/02/21 00:58:19;;;;;;;;;;;8.70;76.80;;;;;;4998264;28;19916;-75
2022/02/21 01:00:44;;;;;;;;;;;8.70;77.00;;;;;;4998020;28;19909;-75
2022/02/21 01:03:10;;;;;;;;;;;8.70;76.50;;;;;;4997871;28;20004;-75
2022/02/21 01:05:40;;;;;;;;;;;8.70;77.00;;;;;;4997832;28;20384;-75
2022/02/21 01:08:07;;;;;;;;;;;8.70;76.80;;;;;;5015524;28;20281;-75
2022/02/21 01:10:33;;;;;;;;;;;8.70;76.60;;;;;;4997929;28;20008;-75
2022/02/21 01:12:58;;;;;;;;;;;8.80;76.30;;;;;;5015380;28;19955;-75
2022/02/21 01:15:24;;;;;;;;;;;8.80;75.70;;;;;;4997755;28;20358;-76
2022/02/21 01:17:50;;;;;;;;;;;8.80;75.60;;;;;;5015345;28;19916;-75
2022/02/21 01:20:15;;;;;;;;;;;8.90;75.60;;;;;;4997828;28;19909;-74
2022/02/21 01:22:41;;;;;;;;;;;8.90;74.90;;;;;;4997657;28;19996;-75
2022/02/21 01:25:07;;;;;;;;;;;9.00;74.80;;;;;;5015164;28;19913;-75
2022/02/21 01:27:33;;;;;;;;;;;9.00;74.70;;;;;;5015556;28;20276;-75
2022/02/21 01:29:59;;;;;;;;;;;9.00;74.30;;;;;;5015046;28;19909;-75
2022/02/21 01:32:24;;;;;;;;;;;9.00;74.20;;;;;;4997660;28;19914;-75
2022/02/21 01:34:50;;;;;;;;;;;9.00;74.30;;;;;;4981096;28;20004;-75
2022/02/21 01:37:16;;;;;;;;;;;9.00;74.30;;;;;;5014809;28;19909;-75
2022/02/21 01:39:41;;;;;;;;;;;9.00;74.30;;;;;;5015322;28;19910;-76
2022/02/21 01:42:08;;;;;;;;;;;9.00;74.60;;;;;;5014913;28;20005;-75
2022/02/21 01:44:35;;;;;;;;;;;9.00;74.70;;;;;;5014247;28;20281;-75
2022/02/21 01:47:02;;;;;;;;;;;9.00;74.90;;;;;;4997065;28;19913;-76
2022/02/21 01:49:27;;;;;;;;;;;8.90;75.10;;;;;;5014768;28;20443;-75
2022/02/21 01:51:53;;;;;;;;;;;8.90;75.20;;;;;;5014697;28;19916;-74
2022/02/21 01:54:19;;;;;;;;;;;8.90;75.20;;;;;;5014690;28;19910;-74
2022/02/21 01:56:44;;;;;;;;;;;8.90;75.10;;;;;;5014502;28;19952;-74
2022/02/21 01:59:10;;;;;;;;;;;8.90;75.10;;;;;;5014487;28;20338;-74
2022/02/21 02:01:35;;;;;;;;;;;8.90;75.30;;;;;;4996961;28;20357;-75
2022/02/21 02:04:01;;;;;;;;;;;8.90;75.70;;;;;;4996897;28;19988;-74
2022/02/21 02:06:29;;;;;;;;;;;8.90;75.40;;;;;;5014287;28;19945;-74
2022/02/21 02:08:55;;;;;;;;;;;8.90;75.30;;;;;;4996939;28;19909;-75
2022/02/21 02:11:20;;;;;;;;;;;8.80;75.30;;;;;;4996854;28;20008;-74
2022/02/21 02:13:50;;;;;;;;;;;8.80;75.10;;;;;;5014157;28;20026;-75
2022/02/21 02:16:15;;;;;;;;;;;8.80;75.10;;;;;;4996533;28;19916;-74
2022/02/21 02:18:41;;;;;;;;;;;8.80;75.20;;;;;;4996769;28;20277;-74
2022/02/21 02:21:07;;;;;;;;;;;8.90;75.50;;;;;;5014097;28;19925;-74
2022/02/21 02:23:32;;;;;;;;;;;8.80;74.90;;;;;;4996552;28;19909;-74
2022/02/21 02:25:58;;;;;;;;;;;8.80;74.90;;;;;;4996374;28;19917;-74
2022/02/21 02:28:24;;;;;;;;;;;8.80;74.30;;;;;;4980283;28;19997;-74
2022/02/21 02:30:49;;;;;;;;;;;8.80;73.50;;;;;;5013995;28;20001;-74
2022/02/21 02:33:15;;;;;;;;;;;8.90;73.60;;;;;;4980142;28;20330;-74
2022/02/21 02:35:40;;;;;;;;;;;8.90;73.30;;;;;;5013785;28;20347;-74
2022/02/21 02:38:06;;;;;;;;;;;8.90;74.10;;;;;;5013878;28;19910;-74
2022/02/21 02:40:34;;;;;;;;;;;8.90;72.50;;;;;;4996299;28;19909;-74
2022/02/21 02:43:00;;;;;;;;;;;8.90;72.20;;;;;;5013569;28;19916;-75
2022/02/21 02:45:27;;;;;;;;;;;8.90;72.20;;;;;;5013614;28;20465;-74
2022/02/21 02:47:53;;;;;;;;;;;9.00;72.00;;;;;;5013805;28;19910;-75
2022/02/21 02:50:19;;;;;;;;;;;9.00;71.70;;;;;;4996162;28;20345;-74
2022/02/21 02:52:44;;;;;;;;;;;9.00;71.70;;;;;;5013552;28;20281;-74
2022/02/21 02:55:10;;;;;;;;;;;9.00;70.90;;;;;;4995814;28;19913;-74
2022/02/21 02:57:35;;;;;;;;;;;9.10;70.90;;;;;;5012604;28;19914;-75
2022/02/21 03:00:01;;;;;;;;;;;9.10;69.80;;;;;;4995895;28;19909;-75
2022/02/21 03:02:27;;;;;;;;;;;9.20;68.70;;;;;;4995894;28;20011;-74
2022/02/21 03:04:53;;;;;;;;;;;9.30;68.40;;;;;;4995652;28;19940;-74
2022/02/21 03:07:18;;;;;;;;;;;9.30;67.00;;;;;;5013413;28;19956;-74
2022/02/21 03:09:44;;;;;;;;;;;9.50;66.70;;;;;;5013366;28;19910;-75
2022/02/21 03:12:09;;;;;;;;;;;9.50;66.20;;;;;;4995661;28;19917;-75
2022/02/21 03:14:35;;;;;;;;;;;9.50;66.00;;;;;;5013307;28;19953;-74
2022/02/21 03:17:01;;;;;;;;;;;9.50;65.90;;;;;;4995477;28;19913;-74
2022/02/21 03:19:26;;;;;;;;;;;9.50;65.90;;;;;;4995603;28;19910;-74
2022/02/21 03:21:53;;;;;;;;;;;9.50;65.80;;;;;;4995449;28;20328;-74
2022/02/21 03:24:19;;;;;;;;;;;9.50;65.40;;;;;;4995434;28;19935;-74
2022/02/21 03:26:44;;;;;;;;;;;9.50;65.00;;;;;;4995058;28;19913;-74
2022/02/21 03:29:10;;;;;;;;;;;9.60;65.20;;;;;;5012980;28;19921;-74
2022/02/21 03:31:35;;;;;;;;;;;9.50;65.50;;;;;;5013010;28;20554;-74
2022/02/21 03:34:01;;;;;;;;;;;9.50;65.30;;;;;;4995530;28;19914;-74
2022/02/21 03:36:27;;;;;;;;;;;9.50;64.80;;;;;;5012723;28;20004;-74
2022/02/21 03:38:52;;;;;;;;;;;9.50;65.50;;;;;;4995201;28;19909;-74
2022/02/21 03:41:18;;;;;;;;;;;9.50;65.20;;;;;;5012810;28;19914;-74
2022/02/21 03:43:44;;;;;;;;;;;9.50;65.20;;;;;;5012676;28;19914;-74
2022/02/21 03:46:09;;;;;;;;;;;9.50;65.40;;;;;;5012479;28;19914;-74
2022/02/21 03:48:35;;;;;;;;;;;9.50;65.00;;;;;;4995076;28;19910;-75
2022/02/21 03:51:00;;;;;;;;;;;9.50;65.10;;;;;;5012590;28;20021;-74
2022/02/21 03:53:26;;;;;;;;;;;9.60;65.00;;;;;;4994497;28;19924;-73
2022/02/21 03:55:52;;;;;;;;;;;9.60;64.40;;;;;;4995016;28;19932;-74
2022/02/21 03:58:17;;;;;;;;;;;9.70;64.30;;;;;;4995131;28;20365;-74
2022/02/21 04:00:43;;;;;;;;;;;9.60;64.70;;;;;;5012580;28;19910;-75
2022/02/21 04:03:09;;;;;;;;;;;9.70;64.70;;;;;;5012392;28;19909;-75
2022/02/21 04:05:34;;;;;;;;;;;9.70;64.70;;;;;;5012177;28;20373;-75
2022/02/21 04:08:00;;;;;;;;;;;9.70;64.50;;;;;;5015950;28;20425;-75
2022/02/21 04:10:26;;;;;;;;;;;9.80;64.80;;;;;;5001358;28;20004;-75
2022/02/21 04:12:51;;;;;;;;;;;9.80;65.30;;;;;;5018832;28;20373;-75
2022/02/21 04:15:17;;;;;;;;;;;9.80;65.60;;;;;;5018986;28;19916;-75
2022/02/21 04:17:48;;;;;;;;;;;9.80;65.60;;;;;;5018875;28;19910;-75
2022/02/21 04:20:16;;;;;;;;;;;9.80;66.00;;;;;;5019060;28;19910;-75
2022/02/21 04:22:42;;;;;;;;;;;9.80;66.20;;;;;;5018927;28;19955;-75
2022/02/21 04:25:08;;;;;;;;;;;9.80;66.80;;;;;;5001194;28;20289;-75
2022/02/21 04:27:48;;;;;;;;;;;9.80;67.00;;;;;;5018662;28;19909;-76
2022/02/21 04:30:16;;;;;;;;;;;9.80;67.60;;;;;;5018903;28;20419;-75
2022/02/21 04:32:43;;;;;;;;;;;9.70;67.70;;;;;;5001092;28;19932;-75
2022/02/21 04:35:09;;;;;;;;;;;9.70;67.90;;;;;;5018673;28;20400;-75
2022/02/21 04:37:34;;;;;;;;;;;9.70;67.90;;;;;;5001185;28;19910;-76
2022/02/21 04:40:00;;;;;;;;;;;9.70;67.90;;;;;;5001053;28;19909;-75
2022/02/21 04:42:26;;;;;;;;;;;9.70;67.70;;;;;;5018818;28;20110;-75
2022/02/21 04:44:52;;;;;;;;;;;9.70;67.70;;;;;;5001036;28;19917;-74
2022/02/21 04:47:17;;;;;;;;;;;9.80;67.10;;;;;;5018546;28;19913;-75
2022/02/21 04:49:43;;;;;;;;;;;9.80;67.40;;;;;;5001110;28;20312;-75
2022/02/21 04:52:09;;;;;;;;;;;9.80;66.80;;;;;;5018613;28;19965;-76
2022/02/21 04:54:34;;;;;;;;;;;9.80;66.80;;;;;;5018423;28;19909;-75
2022/02/21 04:57:00;;;;;;;;;;;9.80;66.60;;;;;;5000800;28;19917;-75
2022/02/21 04:59:25;;;;;;;;;;;9.80;66.60;;;;;;5018506;28;19952;-75
2022/02/21 05:01:51;;;;;;;;;;;9.80;66.60;;;;;;5000882;28;20278;-75
2022/02/21 05:04:17;;;;;;;;;;;9.80;66.60;;;;;;5018335;28;19945;-76
2022/02/21 05:06:42;;;;;;;;;;;9.80;66.80;;;;;;5018252;28;19952;-75
2022/02/21 05:09:08;;;;;;;;;;;9.80;66.50;;;;;;5000909;28;19992;-75
2022/02/21 05:11:34;;;;;;;;;;;9.80;66.70;;;;;;5018462;28;19913;-75
2022/02/21 05:13:59;;;;;;;;;;;9.80;66.90;;;;;;5018375;28;19952;-76
2022/02/21 05:16:25;;;;;;;;;;;9.80;66.80;;;;;;5018399;28;20005;-75
2022/02/21 05:18:50;;;;;;;;;;;9.80;67.20;;;;;;5016912;28;20288;-75
2022/02/21 05:21:16;;;;;;;;;;;9.80;67.20;;;;;;5015212;28;20318;-75
2022/02/21 05:23:41;;;;;;;;;;;9.80;67.40;;;;;;4997596;28;19913;-76
2022/02/21 05:26:08;;;;;;;;;;;9.70;67.70;;;;;;4981203;28;20520;-74
2022/02/21 05:28:33;;;;;;;;;;;9.70;68.00;;;;;;5015399;28;19960;-75
2022/02/21 05:30:59;;;;;;;;;;;9.70;68.50;;;;;;4997586;28;20310;-75
2022/02/21 05:33:25;;;;;;;;;;;9.70;68.80;;;;;;4997505;28;20432;-75
2022/02/21 05:35:50;;;;;;;;;;;9.70;69.00;;;;;;4997453;28;19968;-74
2022/02/21 05:38:16;;;;;;;;;;;9.60;69.50;;;;;;5014972;28;19916;-75
2022/02/21 05:40:42;;;;;;;;;;;9.60;70.10;;;;;;4997261;28;19909;-75
2022/02/21 05:43:07;;;;;;;;;;;9.50;70.60;;;;;;5014762;28;20304;-75
2022/02/21 05:45:33;;;;;;;;;;;9.50;70.80;;;;;;4996981;28;19923;-75
2022/02/21 05:47:58;;;;;;;;;;;9.50;71.00;;;;;;4997189;28;19967;-75
2022/02/21 05:50:24;;;;;;;;;;;9.50;71.20;;;;;;4997080;28;19909;-76
2022/02/21 05:52:50;;;;;;;;;;;9.40;71.40;;;;;;4997217;28;20412;-75
2022/02/21 05:55:15;;;;;;;;;;;9.40;71.90;;;;;;5014657;28;19917;-75
2022/02/21 05:57:41;;;;;;;;;;;9.40;72.20;;;;;;4996891;28;20258;-75
2022/02/21 06:00:07;;;;;;;;;;;9.30;72.60;;;;;;4997151;28;19913;-75
2022/02/21 06:02:33;;;;;;;;;;;9.30;73.00;;;;;;5014225;28;20395;-75
2022/02/21 06:04:59;;;;;;;;;;;9.40;73.30;;;;;;5014314;28;20004;-76
2022/02/21 06:07:24;;;;;;;;;;;9.40;73.60;;;;;;5014231;28;19996;-74
2022/02/21 06:09:50;;;;;;;;;;;9.40;73.80;;;;;;5014358;28;19909;-75
2022/02/21 06:12:16;;;;;;;;;;;9.30;74.10;;;;;;4996749;28;20000;-75
2022/02/21 06:14:42;;;;;;;;;;;9.30;74.40;;;;;;4996700;28;19909;-75
2022/02/21 06:17:07;;;;;;;;;;;9.30;74.50;;;;;;4996378;28;19965;-75
2022/02/21 06:19:33;;;;;;;;;;;9.30;74.50;;;;;;4996623;28;20024;-75
2022/02/21 06:22:00;;;;;;;;;;;9.30;74.80;;;;;;4996653;28;20004;-74
2022/02/21 06:24:25;;;;;;;;;;;9.40;74.70;;;;;;5014029;28;20000;-75
2022/02/21 06:26:51;;;;;;;;;;;9.40;74.50;;;;;;4996396;28;20425;-75
2022/02/21 06:29:17;;;;;;;;;;;9.40;74.50;;;;;;4995800;28;20271;-75
2022/02/21 06:31:42;;;;;;;;;;;9.50;74.20;;;;;;4982738;28;19909;-75
2022/02/21 06:34:08;;;;;;;;;;;9.50;75.50;;;;;;4996102;28;19909;-75
2022/02/21 06:36:34;;;;;;;;;;;9.40;78.10;;;;;;5012314;28;19913;-76
2022/02/21 06:39:00;;;;;;;;;;;7.80;82.60;;;;;;4996222;28;19915;-75
2022/02/21 06:41:25;;;;;;;;;;;6.70;89.00;;;;;;4995768;28;20352;-74
2022/02/21 06:43:51;;;;;;;;;;;5.30;91.90;;;;;;4995896;28;19921;-75
2022/02/21 06:46:17;;;;;;;;;;;4.60;94.40;;;;;;4979563;28;20365;-75
2022/02/21 06:48:43;;;;;;;;;;;4.20;98.50;;;;;;5013385;28;20312;-74
2022/02/21 06:51:08;;;;;;;;;;;3.70;99.90;;;;;;4995944;28;19915;-75
2022/02/21 06:53:34;;;;;;;;;;;3.40;99.90;;;;;;5012128;28;20004;-75
2022/02/21 06:56:00;;;;;;;;;;;3.10;99.90;;;;;;5013309;28;19955;-75
2022/02/21 06:58:26;;;;;;;;;;;2.90;99.90;;;;;;4996018;28;19933;-75
2022/02/21 07:00:51;;;;;;;;;;;2.70;99.90;;;;;;4995638;28;19924;-75
2022/02/21 07:03:17;;;;;;;;;;;2.60;99.90;;;;;;4995257;28;19910;-75
2022/02/21 07:05:42;;;;;;;;;;;2.60;99.90;;;;;;5012397;28;19921;-76
2022/02/21 07:08:09;;;;;;;;;;;2.50;99.90;;;;;;5013225;28;19972;-75
2022/02/21 07:10:35;;;;;;;;;;;2.60;99.90;;;;;;5013191;28;20015;-73
2022/02/21 07:13:00;;;;;;;;;;;2.50;99.90;;;;;;5012940;28;19949;-74
2022/02/21 07:15:26;;;;;;;;;;;2.50;99.90;;;;;;5013150;28;19914;-73
2022/02/21 07:17:52;;;;;;;;;;;2.50;99.90;;;;;;5012783;28;20384;-73
2022/02/21 07:20:17;;;;;;;;;;;2.50;99.90;;;;;;4979260;28;19913;-73
2022/02/21 07:22:44;;;;;;;;;;;2.30;99.90;;;;;;4979013;28;19909;-73
2022/02/21 07:25:10;;;;;;;;;;;2.50;99.90;;;;;;4995199;28;19924;-74
2022/02/21 07:27:45;;;;;;;;;;;2.50;99.90;;;;;;4995364;28;20389;-73
2022/02/21 07:30:11;;;;;;;;;;;2.50;99.90;;;;;;5012897;28;19914;-73
2022/02/21 07:32:37;;;;;;;;;;;2.50;99.90;;;;;;5012654;28;19995;-74
2022/02/21 07:35:04;;;;;;;;;;;2.40;99.90;;;;;;4995036;28;19956;-73
2022/02/21 07:37:30;;;;;;;;;;;2.40;99.90;;;;;;4994947;28;20015;-73
2022/02/21 07:39:56;;;;;;;;;;;2.50;99.90;;;;;;5011775;28;19960;-74
2022/02/21 07:42:22;;;;;;;;;;;2.50;99.90;;;;;;4994408;28;19913;-74
2022/02/21 07:44:50;;;;;;;;;;;2.50;99.90;;;;;;5012492;28;19929;-75
2022/02/21 07:47:16;;;;;;;;;;;2.40;99.90;;;;;;4994635;28;19920;-75
2022/02/21 07:49:42;;;;;;;;;;;2.30;99.90;;;;;;5012132;28;19941;-75
2022/02/21 07:52:08;;;;;;;;;;;2.10;99.90;;;;;;4994398;28;20297;-75
2022/02/21 07:54:34;;;;;;;;;;;2.00;99.90;;;;;;5012358;28;20263;-76
2022/02/21 07:57:01;;;;;;;;;;;2.10;99.90;;;;;;5006865;28;19910;-75
2022/02/21 07:59:27;;;;;;;;;;;2.10;99.90;;;;;;5012448;28;19917;-75
2022/02/21 08:01:53;;;;;;;;;;;2.20;99.90;;;;;;5012371;28;19913;-75
2022/02/21 08:04:19;;;;;;;;;;;2.30;99.90;;;;;;4994981;28;19910;-75
2022/02/21 08:06:46;;;;;;;;;;;2.30;99.90;;;;;;5012274;28;20369;-75
2022/02/21 08:09:12;;;;;;;;;;;2.40;99.90;;;;;;5012337;28;19909;-75
2022/02/21 08:11:38;;;;;;;;;;;2.20;99.90;;;;;;4994900;28;19913;-75
2022/02/21 08:14:04;;;;;;;;;;;2.20;99.90;;;;;;5009991;28;19911;-76
2022/02/21 08:16:30;;;;;;;;;;;2.00;99.90;;;;;;4993683;28;20401;-75
2022/02/21 08:18:55;;;;;;;;;;;2.00;99.90;;;;;;5009090;28;20001;-75
2022/02/21 08:21:21;;;;;;;;;;;2.10;99.90;;;;;;5009660;28;20369;-75
2022/02/21 08:23:47;;;;;;;;;;;2.20;99.90;;;;;;4993173;28;19913;-75
2022/02/21 08:26:12;;;;;;;;;;;2.10;99.90;;;;;;5010825;28;19925;-76
2022/02/21 08:28:38;;;;;;;;;;;1.90;99.90;;;;;;5011580;28;19968;-75
2022/02/21 08:31:03;;;;;;;;;;;1.80;99.90;;;;;;4992801;28;19916;-74
2022/02/21 08:33:29;;;;;;;;;;;1.90;99.90;;;;;;5010799;28;20000;-77
2022/02/21 08:35:55;;;;;;;;;;;1.90;99.90;;;;;;5010921;28;19913;-75
2022/02/21 08:38:20;;;;;;;;;;;1.90;99.90;;;;;;4993732;28;20008;-75
2022/02/21 08:40:48;;;;;;;;;;;2.00;99.90;;;;;;4993270;28;19909;-75
2022/02/21 08:43:14;;;;;;;;;;;2.00;99.90;;;;;;4994587;28;19909;-74
2022/02/21 08:45:40;;;;;;;;;;;2.10;99.90;;;;;;5010430;28;20377;-75
2022/02/21 08:48:05;;;;;;;;;;;2.10;99.90;;;;;;4977255;28;19909;-75
2022/02/21 08:50:31;;;;;;;;;;;2.10;99.90;;;;;;4976979;28;19914;-75
2022/02/21 08:52:57;;;;;;;;;;;2.20;99.90;;;;;;5010812;28;19953;-76
2022/02/21 08:55:23;;;;;;;;;;;2.10;99.90;;;;;;4995601;28;20258;-75
2022/02/21 08:57:48;;;;;;;;;;;2.20;99.90;;;;;;5014766;28;19914;-74
2022/02/21 09:00:15;;;;;;;;;;;2.20;99.90;;;;;;4980487;28;19916;-75
2022/02/21 09:02:43;;;;;;;;;;;2.40;99.90;;;;;;5014657;28;19909;-74
2022/02/21 09:05:10;;;;;;;;;;;2.40;99.90;;;;;;4996391;28;19909;-75
2022/02/21 09:07:36;;;;;;;;;;;2.60;99.90;;;;;;4980399;28;19913;-75
2022/02/21 09:10:01;;;;;;;;;;;2.60;99.90;;;;;;5014215;28;19910;-75
2022/02/21 09:12:28;;;;;;;;;;;2.60;99.90;;;;;;5014160;28;19960;-75
2022/02/21 09:14:56;;;;;;;;;;;2.70;99.90;;;;;;4996181;28;19975;-76
2022/02/21 09:17:22;;;;;;;;;;;2.60;99.90;;;;;;4996379;28;19909;-75
2022/02/21 09:19:47;;;;;;;;;;;2.70;99.90;;;;;;4996375;28;19924;-75
2022/02/21 09:22:13;;;;;;;;;;;2.80;99.90;;;;;;4996468;28;19910;-75
2022/02/21 09:24:39;;;;;;;;;;;2.80;99.90;;;;;;4996171;28;19918;-74
2022/02/21 09:27:05;;;;;;;;;;;2.70;99.90;;;;;;4996512;28;20396;-75
2022/02/21 09:29:31;;;;;;;;;;;2.80;99.90;;;;;;4996392;28;19929;-75
2022/02/21 09:31:58;;;;;;;;;;;2.90;99.90;;;;;;5013920;28;19910;-75
2022/02/21 09:34:24;;;;;;;;;;;3.00;99.90;;;;;;5014043;28;19909;-75
2022/02/21 09:36:50;;;;;;;;;;;2.90;99.90;;;;;;5014174;28;19910;-75
2022/02/21 09:39:15;;;;;;;;;;;3.00;99.90;;;;;;5014412;28;19967;-74
2022/02/21 09:41:41;;;;;;;;;;;3.00;99.90;;;;;;5013643;28;20262;-74
2022/02/21 09:44:08;;;;;;;;;;;3.10;99.90;;;;;;4996250;28;19976;-75
2022/02/21 09:46:34;;;;;;;;;;;3.20;99.90;;;;;;4995807;28;19913;-76
2022/02/21 09:49:00;;;;;;;;;;;3.40;99.90;;;;;;4996231;28;19917;-76
2022/02/21 09:51:26;;;;;;;;;;;3.60;99.90;;;;;;5013238;28;20359;-74
2022/02/21 09:53:51;;;;;;;;;;;3.80;99.90;;;;;;4979872;28;19916;-74
2022/02/21 09:56:17;;;;;;;;;;;3.80;99.90;;;;;;4995535;28;19917;-75
2022/02/21 09:58:43;;;;;;;;;;;3.80;99.90;;;;;;5013797;28;20383;-74
2022/02/21 10:01:08;;;;;;;;;;;3.80;99.90;;;;;;5013300;28;19983;-77
2022/02/21 10:03:37;;;;;;;;;;;4.20;99.90;;;;;;5009109;28;19916;-76
2022/02/21 10:06:22;;;;;;;;;;;4.70;99.90;;;;;;4995123;28;19913;-75
2022/02/21 10:09:03;;;;;;;;;;;4.70;99.90;;;;;;5013597;28;19916;-75
2022/02/21 10:11:29;;;;;;;;;;;4.60;99.90;;;;;;5012917;28;19959;-77
2022/02/21 10:13:56;;;;;;;;;;;4.60;99.90;;;;;;5013311;28;20285;-77
2022/02/21 10:16:21;;;;;;;;;;;4.80;99.90;;;;;;4995450;28;19916;-78
2022/02/21 10:18:47;;;;;;;;;;;5.10;99.90;;;;;;5013167;28;19996;-76
2022/02/21 10:21:13;;;;;;;;;;;5.10;99.90;;;;;;4978333;28;19910;-76
2022/02/21 10:23:42;;;;;;;;;;;5.00;99.90;;;;;;4995512;28;19956;-76
2022/02/21 10:26:07;;;;;;;;;;;4.70;99.90;;;;;;4994765;28;19992;-75
2022/02/21 10:28:40;;;;;;;;;;;5.00;99.90;;;;;;4995550;28;20328;-75
2022/02/21 10:31:14;;;;;;;;;;;5.30;99.90;;;;;;5014218;28;20320;-79
2022/02/21 10:33:45;;;;;;;;;;;5.50;99.90;;;;;;4979726;28;19919;-76
2022/02/21 10:36:30;;;;;;;;;;;6.20;99.90;;;;;;5012656;28;20377;-77
2022/02/21 10:38:56;;;;;;;;;;;6.20;99.90;;;;;;5013059;28;19924;-76
2022/02/21 10:41:22;;;;;;;;;;;5.90;99.90;;;;;;5012498;28;19913;-76
2022/02/21 10:43:48;;;;;;;;;;;6.50;99.90;;;;;;5011978;28;19980;-76
2022/02/21 10:46:14;;;;;;;;;;;7.10;99.90;;;;;;5012023;28;19949;-75
2022/02/21 10:48:43;;;;;;;;;;;7.70;99.90;;;;;;4994957;28;19957;-75
2022/02/21 10:51:09;;;;;;;;;;;7.90;98.00;;;;;;5011995;28;20274;-76
2022/02/21 10:53:46;;;;;;;;;;;8.10;94.60;;;;;;4994792;28;19909;-75
2022/02/21 10:56:12;;;;;;;;;;;8.70;95.50;;;;;;4994240;28;19909;-77
2022/02/21 10:58:38;;;;;;;;;;;9.30;91.30;;;;;;4994950;28;19913;-76
2022/02/21 11:01:05;;;;;;;;;;;8.50;90.80;;;;;;4978139;28;19958;-75
2022/02/21 11:03:31;;;;;;;;;;;7.40;92.90;;;;;;5012235;28;20322;-75
2022/02/21 11:05:59;;;;;;;;;;;7.50;94.70;;;;;;5012095;28;20028;-75
2022/02/21 11:08:27;;;;;;;;;;;7.00;94.90;;;;;;4993793;28;19967;-75
2022/02/21 11:10:55;;;;;;;;;;;6.20;97.30;;;;;;5007804;28;19909;-75
2022/02/21 11:13:21;;;;;;;;;;;6.40;97.20;;;;;;5011497;28;19939;-75
2022/02/21 11:15:50;;;;;;;;;;;6.40;98.10;;;;;;5012170;28;19918;-76
2022/02/21 11:18:17;;;;;;;;;;;6.50;98.80;;;;;;4993214;28;19956;-75
2022/02/21 11:20:43;;;;;;;;;;;6.70;97.40;;;;;;5012025;28;20254;-75
2022/02/21 11:23:09;;;;;;;;;;;6.30;97.80;;;;;;5010543;28;19956;-75
2022/02/21 11:25:38;;;;;;;;;;;6.40;95.80;;;;;;5011679;28;19913;-76
2022/02/21 11:28:04;;;;;;;;;;;6.10;96.60;;;;;;4993726;28;20017;-76
2022/02/21 11:30:30;;;;;;;;;;;5.90;96.30;;;;;;4994110;28;20362;-75
2022/02/21 11:33:01;;;;;;;;;;;5.80;97.60;;;;;;5011093;28;19952;-75
2022/02/21 11:35:27;;;;;;;;;;;6.10;96.90;;;;;;4990096;28;20005;-75
2022/02/21 11:37:52;;;;;;;;;;;6.40;94.90;;;;;;4993666;28;20027;-76
2022/02/21 11:40:18;;;;;;;;;;;6.70;93.70;;;;;;4993865;28;20001;-75
2022/02/21 11:42:44;;;;;;;;;;;7.20;91.40;;;;;;5010811;28;19945;-75
2022/02/21 11:45:26;;;;;;;;;;;8.10;91.00;;;;;;4993027;28;19917;-76
2022/02/21 11:47:56;;;;;;;;;;;8.60;84.80;;;;;;5010242;28;19910;-75
2022/02/21 11:50:27;;;;;;;;;;;8.80;83.40;;;;;;5015856;28;20301;-75
2022/02/21 11:52:54;;;;;;;;;;;9.00;81.90;;;;;;4993584;28;19953;-76
2022/02/21 11:55:29;;;;;;;;;;;9.40;78.30;;;;;;5011860;28;20004;-76
2022/02/21 11:57:55;;;;;;;;;;;9.20;76.50;;;;;;5010661;28;19958;-76
2022/02/21 12:00:32;;;;;;;;;;;9.00;79.20;;;;;;5011448;28;19909;-76
2022/02/21 12:03:12;;;;;;;;;;;9.50;76.60;;;;;;4976888;28;20009;-76
2022/02/21 12:05:38;;;;;;;;;;;10.10;73.70;;;;;;4993529;28;19917;-76
2022/02/21 12:08:22;;;;;;;;;;;9.00;73.90;;;;;;4993397;28;20384;-76
2022/02/21 12:11:00;;;;;;;;;;;9.20;74.00;;;;;;4993692;28;20293;-76
2022/02/21 12:13:26;;;;;;;;;;;9.60;73.60;;;;;;4993172;28;20377;-76
2022/02/21 12:15:59;;;;;;;;;;;8.50;76.00;;;;;;5010972;28;19962;-75
2022/02/21 12:18:31;;;;;;;;;;;7.50;77.60;;;;;;4993182;28;20276;-76
2022/02/21 12:21:07;;;;;;;;;;;7.10;82.40;;;;;;5011154;28;20405;-75
2022/02/21 12:23:32;;;;;;;;;;;6.70;84.60;;;;;;5006997;28;19917;-76
2022/02/21 12:25:58;;;;;;;;;;;7.10;84.90;;;;;;5011066;28;19917;-76
2022/02/21 12:28:25;;;;;;;;;;;7.10;85.00;;;;;;5011790;28;20289;-76
2022/02/21 12:30:54;;;;;;;;;;;7.80;83.10;;;;;;4997207;28;19909;-75
2022/02/21 12:33:25;;;;;;;;;;;8.70;79.90;;;;;;4996478;28;19910;-76
2022/02/21 12:35:57;;;;;;;;;;;9.40;77.30;;;;;;4997396;28;19916;-76
2022/02/21 12:38:23;;;;;;;;;;;10.20;73.60;;;;;;5014662;28;19910;-76
2022/02/21 12:41:07;;;;;;;;;;;10.50;68.90;;;;;;4997334;28;20316;-75
2022/02/21 12:43:49;;;;;;;;;;;9.80;70.40;;;;;;4996900;28;20032;-75
2022/02/21 12:46:15;;;;;;;;;;;8.90;73.60;;;;;;5010178;28;19913;-76
2022/02/21 12:48:42;;;;;;;;;;;8.30;74.80;;;;;;4996819;28;19960;-75
2022/02/21 12:51:07;;;;;;;;;;;8.90;75.40;;;;;;4996701;28;19917;-75
2022/02/21 12:53:33;;;;;;;;;;;9.10;72.20;;;;;;5014311;28;19996;-75
2022/02/21 12:55:59;;;;;;;;;;;9.50;71.20;;;;;;4997487;28;19914;-76
2022/02/21 12:58:35;;;;;;;;;;;9.90;69.40;;;;;;5014084;28;20380;-76
2022/02/21 13:01:00;;;;;;;;;;;10.60;67.70;;;;;;4997405;28;20369;-75
2022/02/21 13:03:26;;;;;;;;;;;10.10;66.90;;;;;;5013893;28;19924;-76
2022/02/21 13:05:58;;;;;;;;;;;10.20;67.00;;;;;;4996625;28;19945;-75
2022/02/21 13:08:37;;;;;;;;;;;9.80;65.90;;;;;;5013727;28;19910;-75
2022/02/21 13:11:03;;;;;;;;;;;9.70;68.50;;;;;;4980549;28;19918;-75
2022/02/21 13:13:28;;;;;;;;;;;9.50;68.20;;;;;;5014403;28;20424;-75
2022/02/21 13:15:54;;;;;;;;;;;8.40;70.00;;;;;;4996637;28;19953;-75
2022/02/21 13:18:20;;;;;;;;;;;8.20;74.20;;;;;;5014651;28;19916;-75
2022/02/21 13:20:45;;;;;;;;;;;8.10;74.00;;;;;;5014440;28;20301;-75
2022/02/21 13:23:17;;;;;;;;;;;8.20;74.70;;;;;;4996367;28;19996;-78
2022/02/21 13:25:43;;;;;;;;;;;8.20;74.10;;;;;;5012138;28;19913;-76
2022/02/21 13:28:16;;;;;;;;;;;8.20;73.40;;;;;;5014437;28;20404;-75
2022/02/21 13:30:41;;;;;;;;;;;8.00;72.80;;;;;;5014096;28;19917;-75
2022/02/21 13:33:13;;;;;;;;;;;7.90;73.60;;;;;;5014024;28;20289;-75
2022/02/21 13:35:39;;;;;;;;;;;8.30;72.30;;;;;;4996289;28;19925;-76
2022/02/21 13:38:04;;;;;;;;;;;8.10;73.30;;;;;;5013698;28;19919;-75
2022/02/21 13:40:32;;;;;;;;;;;8.00;73.70;;;;;;5012620;28;19999;-75
2022/02/21 13:42:59;;;;;;;;;;;7.70;73.90;;;;;;4991220;28;20285;-76
2022/02/21 13:45:24;;;;;;;;;;;7.80;76.50;;;;;;5012884;28;19921;-77
2022/02/21 13:48:01;;;;;;;;;;;8.10;76.60;;;;;;4995841;28;19910;-73
2022/02/21 13:50:34;;;;;;;;;;;7.80;77.00;;;;;;5013202;28;19916;-75
2022/02/21 13:53:00;;;;;;;;;;;7.80;75.40;;;;;;5013279;28;19917;-76
2022/02/21 13:55:27;;;;;;;;;;;7.90;75.20;;;;;;5013147;28;19913;-76
2022/02/21 13:57:59;;;;;;;;;;;7.70;75.20;;;;;;5013736;28;19910;-76
2022/02/21 14:00:36;;;;;;;;;;;7.70;75.60;;;;;;5013344;28;20309;-75
2022/02/21 14:03:01;;;;;;;;;;;7.50;76.20;;;;;;5013503;28;19914;-76
2022/02/21 14:05:27;;;;;;;;;;;7.40;75.10;;;;;;4979082;28;19928;-75
2022/02/21 14:07:52;;;;;;;;;;;7.20;75.00;;;;;;5013390;28;19969;-75
2022/02/21 14:10:22;;;;;;;;;;;7.30;75.20;;;;;;4994076;28;19913;-75
2022/02/21 14:12:54;;;;;;;;;;;7.40;75.20;;;;;;4995449;28;19909;-77
2022/02/21 14:15:20;;;;;;;;;;;7.60;74.60;;;;;;4995440;28;20258;-75
2022/02/21 14:17:46;;;;;;;;;;;7.40;75.10;;;;;;5012495;28;19920;-76
2022/02/21 14:20:11;;;;;;;;;;;7.40;76.20;;;;;;4995066;28;19909;-76
2022/02/21 14:22:37;;;;;;;;;;;7.30;74.60;;;;;;4979285;28;19914;-75
2022/02/21 14:25:03;;;;;;;;;;;7.20;76.60;;;;;;4995145;28;19914;-74